Darstellungsparameter: Aktuell verwendete Einstellungen:
Skalierung der Graphiken ... ?
xyx+y,   Skalierungsfaktor:      Skalierung: Modus: x, Faktor: 1
Darstellungszeitraum ... ?
Vom - - bis: - -   Zeitraum: 15.12.2019 - 15.12.2019
Min/Max/Avg-Anzeige ... ?
Zeige MMA aktuell
Zeige MMA Monat
Zeige MMA alles
Zeige --A aktuell
Zeige --A Monat
Zeige --A alles
Keine MMA-Anzeige
MMA:
Average (ber die Originaldaten)
MMA-Basis: 15.12.2019 - 15.12.2019
Quicknavigation für Darstellung... ?
Tage:      1T, 2T, 3T, 5T -1T -2T -3T -5T +1T +2T +3T +5T
Wochen: 1W, 2W, 3W -1W -2W -3W +1W +2W +3W
Monate: 1M, 3M, 6M -1M -3M -6M +1M +3M +6M
Jahre:    1J, 3J, 5J, 10J -1J -3J -5J -10J +1J +3J +5J +10J
Nutze für die Darstellung ... ?
Originaldaten oder Mittelwerte auf ...
Stundenbasis Tagesbasis Wochenbasis
Monatsbasis Jahresbasis      Datenbasis: Original-Daten
Darstellen als:
Statistik (Auto) Statistik J:M      Darstellung:
Zur Graphik,    zurück zur Übersicht aller Sensoren.
 
Tabellarische Datenbersicht: ?
 
Sensor: Nr:Datum:Temp:Abs-Feuchte:Windchill:Wind:
Aussen-T/F 1 15-12-2019 00:00:00 7.5 C 6.72 g/m*3 7.5 C 3.2 km/h
2 15-12-2019 00:05:00 7.4 C 6.76 g/m*3 5.58 C 9.7 km/h
3 15-12-2019 00:10:00 7.3 C 6.72 g/m*3 7.3 C 0 km/h
4 15-12-2019 00:15:00 7.2 C 6.67 g/m*3 7.2 C 0 km/h
5 15-12-2019 00:20:00 7.1 C 6.71 g/m*3 7.1 C 1.6 km/h
6 15-12-2019 00:25:00 6.9 C 6.62 g/m*3 6.9 C 0 km/h
7 15-12-2019 00:30:00 6.8 C 6.65 g/m*3 6.8 C 1.6 km/h
8 15-12-2019 00:35:00 6.6 C 6.57 g/m*3 6.6 C 0 km/h
9 15-12-2019 00:40:00 6.4 C 6.56 g/m*3 6.4 C 3.2 km/h
10 15-12-2019 00:45:00 6.3 C 6.51 g/m*3 6.3 C 3.2 km/h
11 15-12-2019 00:50:00 6.3 C 6.59 g/m*3 6.3 C 4.8 km/h
12 15-12-2019 00:55:00 6.3 C 6.59 g/m*3 6.3 C 1.6 km/h
13 15-12-2019 01:00:00 6.2 C 6.55 g/m*3 4.98 C 6.4 km/h
14 15-12-2019 01:05:00 6.2 C 6.55 g/m*3 6.2 C 0 km/h
15 15-12-2019 01:10:00 6.2 C 6.62 g/m*3 6.2 C 0 km/h
16 15-12-2019 01:15:00 6.2 C 6.62 g/m*3 6.2 C 0 km/h
17 15-12-2019 01:20:00 6.2 C 6.62 g/m*3 6.2 C 3.2 km/h
18 15-12-2019 01:25:00 6.3 C 6.66 g/m*3 6.3 C 3.2 km/h
19 15-12-2019 01:30:00 6.3 C 6.66 g/m*3 6.3 C 3.2 km/h
20 15-12-2019 01:35:00 6.4 C 6.71 g/m*3 6.4 C 3.2 km/h
21 15-12-2019 01:40:00 6.4 C 6.63 g/m*3 6.4 C 0 km/h
22 15-12-2019 01:45:00 6.4 C 6.63 g/m*3 6.4 C 0 km/h
23 15-12-2019 01:50:00 6.5 C 6.75 g/m*3 4.87 C 8.1 km/h
24 15-12-2019 01:55:00 6.6 C 6.72 g/m*3 6.6 C 4.8 km/h
25 15-12-2019 02:00:00 6.7 C 6.84 g/m*3 6.7 C 0 km/h
Sensor: Nr:Datum:Temp:Abs-Feuchte:Windchill:Wind:
Aussen-T/F 26 15-12-2019 02:05:00 6.7 C 6.84 g/m*3 6.7 C 0 km/h
27 15-12-2019 02:10:00 6.7 C 6.84 g/m*3 6.7 C 0 km/h
28 15-12-2019 02:15:00 6.7 C 6.84 g/m*3 6.7 C 1.6 km/h
29 15-12-2019 02:20:00 6.7 C 6.91 g/m*3 6.7 C 1.6 km/h
30 15-12-2019 02:25:00 6.7 C 6.91 g/m*3 6.7 C 0 km/h
31 15-12-2019 02:30:00 6.7 C 6.91 g/m*3 6.7 C 0 km/h
32 15-12-2019 02:35:00 6.8 C 7.04 g/m*3 6.8 C 3.2 km/h
33 15-12-2019 02:40:00 6.8 C 7.04 g/m*3 6.8 C 3.2 km/h
34 15-12-2019 02:45:00 6.8 C 7.11 g/m*3 5.22 C 8.1 km/h
35 15-12-2019 02:50:00 6.9 C 7.16 g/m*3 5.79 C 6.4 km/h
36 15-12-2019 02:55:00 7 C 7.21 g/m*3 7 C 1.6 km/h
37 15-12-2019 03:00:00 7 C 7.21 g/m*3 7 C 0 km/h
38 15-12-2019 03:05:00 7 C 7.21 g/m*3 7 C 0 km/h
39 15-12-2019 03:10:00 6.9 C 7.24 g/m*3 6.9 C 0 km/h
40 15-12-2019 03:15:00 6.9 C 7.24 g/m*3 6.9 C 0 km/h
41 15-12-2019 03:20:00 6.9 C 7.24 g/m*3 6.9 C 1.6 km/h
42 15-12-2019 03:25:00 6.9 C 7.24 g/m*3 6.9 C 0 km/h
43 15-12-2019 03:30:00 6.9 C 7.24 g/m*3 6.9 C 0 km/h
44 15-12-2019 03:35:00 6.9 C 7.31 g/m*3 6.9 C 1.6 km/h
45 15-12-2019 03:40:00 7 C 7.36 g/m*3 7 C 3.2 km/h
46 15-12-2019 03:45:00 7.1 C 7.41 g/m*3 7.1 C 0 km/h
47 15-12-2019 03:50:00 7.2 C 7.46 g/m*3 7.2 C 1.6 km/h
48 15-12-2019 03:55:00 7.2 C 7.46 g/m*3 7.2 C 0 km/h
49 15-12-2019 04:00:00 7.3 C 7.51 g/m*3 5.47 C 9.7 km/h
50 15-12-2019 04:05:00 7.7 C 7.78 g/m*3 7.7 C 4.8 km/h
Sensor: Nr:Datum:Temp:Abs-Feuchte:Windchill:Wind:
Aussen-T/F 51 15-12-2019 04:10:00 8 C 7.94 g/m*3 6.3 C 9.7 km/h
52 15-12-2019 04:15:00 8.1 C 7.99 g/m*3 8.1 C 4.8 km/h
53 15-12-2019 04:20:00 8.2 C 8.04 g/m*3 8.2 C 1.6 km/h
54 15-12-2019 04:25:00 8.2 C 8.04 g/m*3 6.25 C 11.3 km/h
55 15-12-2019 04:30:00 8.3 C 8.09 g/m*3 8.3 C 4.8 km/h
56 15-12-2019 04:35:00 8.4 C 8.14 g/m*3 7.52 C 6.4 km/h
57 15-12-2019 04:40:00 8.5 C 8.2 g/m*3 8.5 C 4.8 km/h
58 15-12-2019 04:45:00 8.6 C 8.25 g/m*3 8.6 C 4.8 km/h
59 15-12-2019 04:50:00 8.7 C 8.3 g/m*3 8.7 C 4.8 km/h
60 15-12-2019 04:55:00 8.8 C 8.36 g/m*3 8.8 C 1.6 km/h
61 15-12-2019 05:00:00 8.9 C 8.41 g/m*3 8.1 C 6.4 km/h
62 15-12-2019 05:05:00 8.9 C 8.41 g/m*3 8.9 C 4.8 km/h
63 15-12-2019 05:10:00 8.9 C 8.32 g/m*3 8.9 C 1.6 km/h
64 15-12-2019 05:15:00 9 C 8.38 g/m*3 8.21 C 6.4 km/h
65 15-12-2019 05:20:00 9.1 C 8.43 g/m*3 9.1 C 4.8 km/h
66 15-12-2019 05:25:00 9.1 C 8.43 g/m*3 6.67 C 16.1 km/h
67 15-12-2019 05:30:00 9.3 C 8.54 g/m*3 7.33 C 12.9 km/h
68 15-12-2019 05:35:00 9.4 C 8.59 g/m*3 7.7 C 11.3 km/h
69 15-12-2019 05:40:00 9.7 C 8.67 g/m*3 6.5 C 25.7 km/h
70 15-12-2019 05:45:00 10 C 8.74 g/m*3 6.89 C 25.7 km/h
71 15-12-2019 05:50:00 10.2 C 8.66 g/m*3 8.43 C 12.9 km/h
72 15-12-2019 05:55:00 10.4 C 8.77 g/m*3 8.11 C 17.7 km/h
73 15-12-2019 06:00:00 10.5 C 8.73 g/m*3 8.07 C 19.3 km/h
74 15-12-2019 06:05:00 10.7 C 8.84 g/m*3 8.04 C 22.5 km/h
75 15-12-2019 06:10:00 10.7 C 8.74 g/m*3 8.65 C 16.1 km/h
Sensor: Nr:Datum:Temp:Abs-Feuchte:Windchill:Wind:
Aussen-T/F 76 15-12-2019 06:15:00 10.8 C 8.7 g/m*3 8.17 C 22.5 km/h
77 15-12-2019 06:20:00 10.8 C 8.7 g/m*3 8.17 C 22.5 km/h
78 15-12-2019 06:25:00 10.7 C 8.64 g/m*3 8.32 C 19.3 km/h
79 15-12-2019 06:30:00 10.7 C 8.64 g/m*3 7.79 C 25.7 km/h
80 15-12-2019 06:35:00 10.9 C 8.65 g/m*3 7.71 C 30.6 km/h
81 15-12-2019 06:40:00 11 C 8.61 g/m*3 8.05 C 27.4 km/h
82 15-12-2019 06:45:00 11.1 C 8.66 g/m*3 11.1 C 27.4 km/h
83 15-12-2019 06:50:00 11.1 C 8.56 g/m*3 11.1 C 20.9 km/h
84 15-12-2019 06:55:00 11.1 C 8.56 g/m*3 11.1 C 24.1 km/h
85 15-12-2019 07:00:00 11 C 8.51 g/m*3 8.7 C 19.3 km/h
86 15-12-2019 07:05:00 11 C 8.51 g/m*3 8.3 C 24.1 km/h
87 15-12-2019 07:10:00 11 C 8.51 g/m*3 7.94 C 29 km/h
88 15-12-2019 07:15:00 11.1 C 8.56 g/m*3 11.1 C 22.5 km/h
89 15-12-2019 07:20:00 11 C 8.51 g/m*3 8.7 C 19.3 km/h
90 15-12-2019 07:25:00 10.9 C 8.45 g/m*3 8.73 C 17.7 km/h
91 15-12-2019 07:30:00 11 C 8.51 g/m*3 7.94 C 29 km/h
92 15-12-2019 07:35:00 11 C 8.51 g/m*3 8.05 C 27.4 km/h
93 15-12-2019 07:40:00 11 C 8.51 g/m*3 8.3 C 24.1 km/h
94 15-12-2019 07:45:00 10.9 C 8.45 g/m*3 8.3 C 22.5 km/h
95 15-12-2019 07:50:00 11 C 8.51 g/m*3 7.84 C 30.6 km/h
96 15-12-2019 07:55:00 11.1 C 8.56 g/m*3 11.1 C 22.5 km/h
97 15-12-2019 08:00:00 11.1 C 8.56 g/m*3 11.1 C 24.1 km/h
98 15-12-2019 08:05:00 11.1 C 8.56 g/m*3 11.1 C 16.1 km/h
99 15-12-2019 08:10:00 11.1 C 8.56 g/m*3 11.1 C 24.1 km/h
100 15-12-2019 08:15:00 11.2 C 8.62 g/m*3 11.2 C 29 km/h
Sensor: Nr:Datum:Temp:Abs-Feuchte:Windchill:Wind:
Aussen-T/F 101 15-12-2019 08:20:00 11.2 C 8.62 g/m*3 11.2 C 9.7 km/h
102 15-12-2019 08:25:00 11.2 C 8.62 g/m*3 11.2 C 22.5 km/h
103 15-12-2019 08:30:00 11.2 C 8.62 g/m*3 11.2 C 14.5 km/h
104 15-12-2019 08:35:00 11.2 C 8.62 g/m*3 11.2 C 9.7 km/h
105 15-12-2019 08:40:00 11.2 C 8.72 g/m*3 11.2 C 16.1 km/h
106 15-12-2019 08:45:00 11.1 C 8.86 g/m*3 11.1 C 16.1 km/h
107 15-12-2019 08:50:00 10.8 C 8.8 g/m*3 8.04 C 24.1 km/h
108 15-12-2019 08:55:00 10.5 C 8.73 g/m*3 7.19 C 30.6 km/h
109 15-12-2019 09:00:00 10.2 C 8.66 g/m*3 7.4 C 22.5 km/h
110 15-12-2019 09:05:00 10.1 C 8.7 g/m*3 8.54 C 11.3 km/h
111 15-12-2019 09:10:00 9.9 C 8.59 g/m*3 8.06 C 12.9 km/h
112 15-12-2019 09:15:00 9.8 C 8.54 g/m*3 8.75 C 8.1 km/h
113 15-12-2019 09:20:00 9.6 C 8.43 g/m*3 8.21 C 9.7 km/h
114 15-12-2019 09:25:00 9.4 C 8.32 g/m*3 7.97 C 9.7 km/h
115 15-12-2019 09:30:00 9.3 C 8.27 g/m*3 8.56 C 6.4 km/h
116 15-12-2019 09:35:00 9.2 C 8.22 g/m*3 8.05 C 8.1 km/h
117 15-12-2019 09:40:00 9.2 C 8.22 g/m*3 8.45 C 6.4 km/h
118 15-12-2019 09:45:00 9.1 C 8.25 g/m*3 9.1 C 4.8 km/h
119 15-12-2019 09:50:00 8.9 C 8.15 g/m*3 8.9 C 4.8 km/h
120 15-12-2019 09:55:00 8.9 C 8.15 g/m*3 8.9 C 3.2 km/h
121 15-12-2019 10:00:00 8.8 C 8.09 g/m*3 7.98 C 6.4 km/h
122 15-12-2019 10:05:00 8.7 C 8.04 g/m*3 7.87 C 6.4 km/h
123 15-12-2019 10:10:00 8.6 C 7.99 g/m*3 8.6 C 4.8 km/h
124 15-12-2019 10:15:00 8.6 C 7.99 g/m*3 8.6 C 4.8 km/h
125 15-12-2019 10:20:00 8.7 C 8.13 g/m*3 8.7 C 1.6 km/h
Sensor: Nr:Datum:Temp:Abs-Feuchte:Windchill:Wind:
Aussen-T/F 126 15-12-2019 10:25:00 8.7 C 8.13 g/m*3 8.7 C 0 km/h
127 15-12-2019 10:30:00 8.7 C 8.13 g/m*3 8.7 C 3.2 km/h
128 15-12-2019 10:35:00 8.7 C 8.13 g/m*3 7.13 C 9.7 km/h
129 15-12-2019 10:40:00 8.7 C 8.13 g/m*3 8.7 C 3.2 km/h
130 15-12-2019 10:45:00 8.7 C 8.04 g/m*3 7.46 C 8.1 km/h
131 15-12-2019 10:50:00 8.7 C 8.04 g/m*3 7.87 C 6.4 km/h
132 15-12-2019 10:55:00 8.8 C 8.09 g/m*3 8.8 C 3.2 km/h
133 15-12-2019 11:00:00 8.8 C 8.09 g/m*3 7.98 C 6.4 km/h
134 15-12-2019 11:05:00 8.7 C 7.96 g/m*3 8.7 C 4.8 km/h
135 15-12-2019 11:10:00 8.8 C 8.01 g/m*3 6.5 C 14.5 km/h
136 15-12-2019 11:15:00 8.8 C 7.92 g/m*3 7.58 C 8.1 km/h
137 15-12-2019 11:20:00 8.7 C 7.78 g/m*3 6.85 C 11.3 km/h
138 15-12-2019 11:25:00 8.7 C 7.7 g/m*3 7.13 C 9.7 km/h
139 15-12-2019 11:30:00 8.7 C 7.7 g/m*3 6.85 C 11.3 km/h
140 15-12-2019 11:35:00 8.7 C 7.7 g/m*3 6.6 C 12.9 km/h
141 15-12-2019 11:40:00 8.8 C 7.75 g/m*3 6.97 C 11.3 km/h
142 15-12-2019 11:45:00 8.8 C 7.66 g/m*3 7.58 C 8.1 km/h
143 15-12-2019 11:50:00 8.8 C 7.66 g/m*3 7.25 C 9.7 km/h
144 15-12-2019 11:55:00 8.8 C 7.66 g/m*3 7.58 C 8.1 km/h
145 15-12-2019 12:00:00 8.7 C 7.52 g/m*3 7.13 C 9.7 km/h
146 15-12-2019 12:05:00 8.7 C 7.52 g/m*3 7.13 C 9.7 km/h
147 15-12-2019 12:10:00 8.7 C 7.52 g/m*3 7.46 C 8.1 km/h
148 15-12-2019 12:15:00 8.6 C 7.48 g/m*3 7.01 C 9.7 km/h
149 15-12-2019 12:20:00 8.6 C 7.56 g/m*3 7.75 C 6.4 km/h
150 15-12-2019 12:25:00 8.6 C 7.56 g/m*3 7.01 C 9.7 km/h
Sensor: Nr:Datum:Temp:Abs-Feuchte:Windchill:Wind:
Aussen-T/F 151 15-12-2019 12:30:00 8.6 C 7.56 g/m*3 7.34 C 8.1 km/h
152 15-12-2019 12:35:00 8.6 C 7.56 g/m*3 7.01 C 9.7 km/h
153 15-12-2019 12:40:00 8.6 C 7.56 g/m*3 6.73 C 11.3 km/h
154 15-12-2019 12:45:00 8.6 C 7.65 g/m*3 6.05 C 16.1 km/h
155 15-12-2019 12:50:00 8.6 C 7.65 g/m*3 8.6 C 3.2 km/h
156 15-12-2019 12:55:00 8.6 C 7.56 g/m*3 6.73 C 11.3 km/h
157 15-12-2019 13:00:00 8.7 C 7.52 g/m*3 7.13 C 9.7 km/h
158 15-12-2019 13:05:00 8.8 C 7.57 g/m*3 6.97 C 11.3 km/h
159 15-12-2019 13:10:00 8.9 C 7.53 g/m*3 7.69 C 8.1 km/h
160 15-12-2019 13:15:00 9.1 C 7.54 g/m*3 7.33 C 11.3 km/h
161 15-12-2019 13:20:00 9.2 C 7.41 g/m*3 6.61 C 17.7 km/h
162 15-12-2019 13:25:00 9.3 C 7.37 g/m*3 7.58 C 11.3 km/h
163 15-12-2019 13:30:00 9.3 C 7.46 g/m*3 7.58 C 11.3 km/h
164 15-12-2019 13:35:00 9.3 C 7.37 g/m*3 7.85 C 9.7 km/h
165 15-12-2019 13:40:00 9.3 C 7.28 g/m*3 6.56 C 19.3 km/h
166 15-12-2019 13:45:00 9.3 C 7.28 g/m*3 7.85 C 9.7 km/h
167 15-12-2019 13:50:00 9.3 C 7.28 g/m*3 8.16 C 8.1 km/h
168 15-12-2019 13:55:00 9.3 C 7.28 g/m*3 7.12 C 14.5 km/h
169 15-12-2019 14:00:00 9.3 C 7.28 g/m*3 7.33 C 12.9 km/h
170 15-12-2019 14:05:00 9.3 C 7.28 g/m*3 8.16 C 8.1 km/h
171 15-12-2019 14:10:00 9.3 C 7.28 g/m*3 7.58 C 11.3 km/h
172 15-12-2019 14:15:00 9.3 C 7.28 g/m*3 7.58 C 11.3 km/h
173 15-12-2019 14:20:00 9.3 C 7.28 g/m*3 7.33 C 12.9 km/h
174 15-12-2019 14:25:00 9.3 C 7.28 g/m*3 7.33 C 12.9 km/h
175 15-12-2019 14:30:00 9.4 C 7.15 g/m*3 7.46 C 12.9 km/h
Sensor: Nr:Datum:Temp:Abs-Feuchte:Windchill:Wind:
Aussen-T/F 176 15-12-2019 14:35:00 9.3 C 7.1 g/m*3 7.58 C 11.3 km/h
177 15-12-2019 14:40:00 9.3 C 7.1 g/m*3 7.33 C 12.9 km/h
178 15-12-2019 14:45:00 9.3 C 7.1 g/m*3 6.73 C 17.7 km/h
179 15-12-2019 14:50:00 9.3 C 7.1 g/m*3 8.56 C 6.4 km/h
180 15-12-2019 14:55:00 9.3 C 7.01 g/m*3 6.73 C 17.7 km/h
181 15-12-2019 15:00:00 9.3 C 7.1 g/m*3 8.16 C 8.1 km/h
182 15-12-2019 15:05:00 9.2 C 7.14 g/m*3 7.73 C 9.7 km/h
183 15-12-2019 15:10:00 9.2 C 7.14 g/m*3 7.46 C 11.3 km/h
184 15-12-2019 15:15:00 9.2 C 7.05 g/m*3 6.79 C 16.1 km/h
185 15-12-2019 15:20:00 9.2 C 6.97 g/m*3 6.79 C 16.1 km/h
186 15-12-2019 15:25:00 9.1 C 7.01 g/m*3 6.67 C 16.1 km/h
187 15-12-2019 15:30:00 9.1 C 7.01 g/m*3 6.87 C 14.5 km/h
188 15-12-2019 15:35:00 9.1 C 7.01 g/m*3 6.87 C 14.5 km/h
189 15-12-2019 15:40:00 9.1 C 6.92 g/m*3 6.15 C 20.9 km/h
190 15-12-2019 15:45:00 9 C 6.88 g/m*3 6.97 C 12.9 km/h
191 15-12-2019 15:50:00 8.9 C 6.83 g/m*3 6.62 C 14.5 km/h
192 15-12-2019 15:55:00 8.9 C 6.75 g/m*3 6.42 C 16.1 km/h
193 15-12-2019 16:00:00 8.8 C 6.79 g/m*3 6.97 C 11.3 km/h
194 15-12-2019 16:05:00 8.8 C 6.7 g/m*3 6.97 C 11.3 km/h
195 15-12-2019 16:10:00 8.8 C 6.7 g/m*3 6.11 C 17.7 km/h
196 15-12-2019 16:15:00 8.7 C 6.75 g/m*3 6.85 C 11.3 km/h
197 15-12-2019 16:20:00 8.6 C 6.62 g/m*3 5.86 C 17.7 km/h
198 15-12-2019 16:25:00 8.5 C 6.66 g/m*3 6.9 C 9.7 km/h
199 15-12-2019 16:30:00 8.4 C 6.62 g/m*3 7.11 C 8.1 km/h
200 15-12-2019 16:35:00 8.3 C 6.57 g/m*3 6.37 C 11.3 km/h
Sensor: Nr:Datum:Temp:Abs-Feuchte:Windchill:Wind:
Aussen-T/F 201 15-12-2019 16:40:00 8.3 C 6.57 g/m*3 6.99 C 8.1 km/h
202 15-12-2019 16:45:00 8.2 C 6.62 g/m*3 8.2 C 4.8 km/h
203 15-12-2019 16:50:00 8.2 C 6.62 g/m*3 5.55 C 16.1 km/h
204 15-12-2019 16:55:00 8.2 C 6.62 g/m*3 5.01 C 20.9 km/h
205 15-12-2019 17:00:00 8.2 C 6.7 g/m*3 6.54 C 9.7 km/h
206 15-12-2019 17:05:00 8.1 C 6.66 g/m*3 6.42 C 9.7 km/h
207 15-12-2019 17:10:00 7.9 C 6.57 g/m*3 6.52 C 8.1 km/h
208 15-12-2019 17:15:00 7.9 C 6.57 g/m*3 5.89 C 11.3 km/h
209 15-12-2019 17:20:00 7.8 C 6.53 g/m*3 5.51 C 12.9 km/h
210 15-12-2019 17:25:00 7.9 C 6.57 g/m*3 5.63 C 12.9 km/h
211 15-12-2019 17:30:00 7.9 C 6.57 g/m*3 6.94 C 6.4 km/h
212 15-12-2019 17:35:00 7.8 C 6.61 g/m*3 5.77 C 11.3 km/h
213 15-12-2019 17:40:00 7.7 C 6.57 g/m*3 5.94 C 9.7 km/h
214 15-12-2019 17:45:00 7.7 C 6.57 g/m*3 5.15 C 14.5 km/h
215 15-12-2019 17:50:00 7.7 C 6.65 g/m*3 5.94 C 9.7 km/h
216 15-12-2019 17:55:00 7.7 C 6.65 g/m*3 5.65 C 11.3 km/h
217 15-12-2019 18:00:00 7.7 C 6.65 g/m*3 6.28 C 8.1 km/h
218 15-12-2019 18:05:00 7.7 C 6.65 g/m*3 5.65 C 11.3 km/h
219 15-12-2019 18:10:00 7.8 C 6.69 g/m*3 6.06 C 9.7 km/h
220 15-12-2019 18:15:00 7.9 C 6.65 g/m*3 4.98 C 17.7 km/h
221 15-12-2019 18:20:00 8.1 C 6.74 g/m*3 6.75 C 8.1 km/h
222 15-12-2019 18:25:00 8 C 6.7 g/m*3 6.3 C 9.7 km/h
223 15-12-2019 18:30:00 7.9 C 6.74 g/m*3 6.94 C 6.4 km/h
224 15-12-2019 18:35:00 7.7 C 6.65 g/m*3 5.65 C 11.3 km/h
225 15-12-2019 18:40:00 7.6 C 6.69 g/m*3 7.6 C 4.8 km/h
Sensor: Nr:Datum:Temp:Abs-Feuchte:Windchill:Wind:
Aussen-T/F 226 15-12-2019 18:45:00 7.3 C 6.64 g/m*3 7.3 C 0 km/h
227 15-12-2019 18:50:00 7.2 C 6.59 g/m*3 7.2 C 0 km/h
228 15-12-2019 18:55:00 7 C 6.59 g/m*3 7 C 0 km/h
229 15-12-2019 19:00:00 6.9 C 6.62 g/m*3 6.9 C 0 km/h
230 15-12-2019 19:05:00 6.7 C 6.53 g/m*3 5.56 C 6.4 km/h
231 15-12-2019 19:10:00 6.6 C 6.57 g/m*3 6.6 C 0 km/h
232 15-12-2019 19:15:00 6.4 C 6.48 g/m*3 6.4 C 3.2 km/h
233 15-12-2019 19:20:00 6.3 C 6.51 g/m*3 6.3 C 0 km/h
234 15-12-2019 19:25:00 6.2 C 6.47 g/m*3 6.2 C 4.8 km/h
235 15-12-2019 19:30:00 6.2 C 6.55 g/m*3 6.2 C 3.2 km/h
236 15-12-2019 19:35:00 6.2 C 6.55 g/m*3 6.2 C 0 km/h
237 15-12-2019 19:40:00 6.1 C 6.58 g/m*3 6.1 C 0 km/h
238 15-12-2019 19:45:00 6.1 C 6.58 g/m*3 6.1 C 0 km/h
239 15-12-2019 19:50:00 6.1 C 6.58 g/m*3 6.1 C 0 km/h
240 15-12-2019 19:55:00 6.1 C 6.58 g/m*3 6.1 C 0 km/h
241 15-12-2019 20:00:00 6.1 C 6.58 g/m*3 6.1 C 0 km/h
242 15-12-2019 20:05:00 6.1 C 6.65 g/m*3 6.1 C 0 km/h
243 15-12-2019 20:10:00 6 C 6.53 g/m*3 6 C 0 km/h
244 15-12-2019 20:15:00 5.9 C 6.56 g/m*3 5.9 C 0 km/h
245 15-12-2019 20:20:00 5.8 C 6.52 g/m*3 5.8 C 0 km/h
246 15-12-2019 20:25:00 5.8 C 6.52 g/m*3 5.8 C 0 km/h
247 15-12-2019 20:30:00 5.7 C 6.48 g/m*3 5.7 C 0 km/h
248 15-12-2019 20:35:00 5.6 C 6.43 g/m*3 5.6 C 0 km/h
249 15-12-2019 20:40:00 5.5 C 6.39 g/m*3 5.5 C 0 km/h
250 15-12-2019 20:45:00 5.3 C 6.31 g/m*3 5.3 C 0 km/h
Sensor: Nr:Datum:Temp:Abs-Feuchte:Windchill:Wind:
Aussen-T/F 251 15-12-2019 20:50:00 5.2 C 6.33 g/m*3 5.2 C 0 km/h
252 15-12-2019 20:55:00 5.1 C 6.29 g/m*3 5.1 C 0 km/h
253 15-12-2019 21:00:00 5 C 6.25 g/m*3 5 C 0 km/h
254 15-12-2019 21:05:00 4.8 C 6.17 g/m*3 4.8 C 0 km/h
255 15-12-2019 21:10:00 4.7 C 6.13 g/m*3 4.7 C 0 km/h
256 15-12-2019 21:15:00 4.6 C 6.09 g/m*3 4.6 C 0 km/h
257 15-12-2019 21:20:00 4.5 C 6.05 g/m*3 4.5 C 0 km/h
258 15-12-2019 21:25:00 4.4 C 6.07 g/m*3 4.4 C 0 km/h
259 15-12-2019 21:30:00 4.3 C 6.03 g/m*3 4.3 C 0 km/h
260 15-12-2019 21:35:00 4.2 C 5.99 g/m*3 4.2 C 0 km/h
261 15-12-2019 21:40:00 4.1 C 5.95 g/m*3 4.1 C 0 km/h
262 15-12-2019 21:45:00 4 C 5.91 g/m*3 4 C 0 km/h
263 15-12-2019 21:50:00 4 C 5.98 g/m*3 4 C 0 km/h
264 15-12-2019 21:55:00 4.1 C 6.02 g/m*3 4.1 C 0 km/h
265 15-12-2019 22:00:00 4.1 C 6.02 g/m*3 4.1 C 0 km/h
266 15-12-2019 22:05:00 4.2 C 6.12 g/m*3 4.2 C 0 km/h
267 15-12-2019 22:10:00 4.2 C 6.12 g/m*3 4.2 C 0 km/h
268 15-12-2019 22:15:00 4.2 C 6.12 g/m*3 4.2 C 0 km/h
269 15-12-2019 22:20:00 4.3 C 6.16 g/m*3 4.3 C 0 km/h
270 15-12-2019 22:25:00 4.3 C 6.16 g/m*3 4.3 C 0 km/h
271 15-12-2019 22:30:00 4.3 C 6.16 g/m*3 4.3 C 0 km/h
272 15-12-2019 22:35:00 4.3 C 6.16 g/m*3 4.3 C 0 km/h
273 15-12-2019 22:40:00 4.3 C 6.16 g/m*3 4.3 C 0 km/h
274 15-12-2019 22:45:00 4.3 C 6.16 g/m*3 4.3 C 0 km/h
275 15-12-2019 22:50:00 4.3 C 6.16 g/m*3 4.3 C 0 km/h
Sensor: Nr:Datum:Temp:Abs-Feuchte:Windchill:Wind:
Aussen-T/F 276 15-12-2019 22:55:00 4.3 C 6.16 g/m*3 4.3 C 0 km/h
277 15-12-2019 23:00:00 4.2 C 6.12 g/m*3 4.2 C 0 km/h
278 15-12-2019 23:05:00 4.3 C 6.16 g/m*3 4.3 C 0 km/h
279 15-12-2019 23:10:00 4.3 C 6.16 g/m*3 4.3 C 0 km/h
280 15-12-2019 23:15:00 4.3 C 6.16 g/m*3 4.3 C 0 km/h
281 15-12-2019 23:20:00 4.4 C 6.27 g/m*3 4.4 C 0 km/h
282 15-12-2019 23:25:00 4.5 C 6.31 g/m*3 4.5 C 0 km/h
283 15-12-2019 23:30:00 4.6 C 6.35 g/m*3 4.6 C 0 km/h
284 15-12-2019 23:35:00 4.5 C 6.24 g/m*3 4.5 C 0 km/h
285 15-12-2019 23:40:00 4.4 C 6.2 g/m*3 4.4 C 0 km/h
286 15-12-2019 23:45:00 4.3 C 6.16 g/m*3 4.3 C 0 km/h
287 15-12-2019 23:50:00 4.3 C 6.16 g/m*3 4.3 C 0 km/h
288 15-12-2019 23:55:00 4.3 C 6.16 g/m*3 4.3 C 0 km/h

Legende:
   Min
   Max


Maximal/Minimal-Werte vom 15.12.2019 - 15.12.2019

Sensor Min Max Avg
Temp
(Aussen-T/F)
4 °C
15-12-2019  21:45:00
11.2 °C
15-12-2019  08:15:00
7.9 °C
Abs-Feuchte
(Aussen-T/F)
5.91 g/m*3
15-12-2019  21:45:00
8.86 g/m*3
15-12-2019  08:45:00
7.25 g/m*3
Windchill
(Aussen-T/F)
4 C
15-12-2019  21:45:00
11.2 C
15-12-2019  08:15:00
6.93 C

Die Daten stammen von einer Davis Vantage Pro 2 Wetter-Station und werden unter Linux mit der Software wview2wettercgi und aufbereitet. Alle Angaben erfolgen ohne Gewähr für ihre Vollständigkeit oder Richtigkeit.
Kontakt: Rainer Krienke krienke@uni-koblenz.de . Meine Webseiten an der Uni Koblenz oder privat.
Version: $Revision: 0.78 $